createdAt,value
2019-02-10T00:00:55.006Z,2.00
2019-02-10T00:03:26.252Z,1.60
2019-02-10T00:05:57.821Z,2.22
2019-02-10T00:08:28.867Z,2.52
2019-02-10T00:10:59.958Z,2.12
2019-02-10T00:13:33.824Z,1.92
2019-02-10T00:16:22.375Z,2.22
2019-02-10T00:18:53.587Z,1.82
2019-02-10T00:21:24.670Z,2.20
2019-02-10T00:23:55.814Z,1.80
2019-02-10T00:26:28.468Z,2.22
2019-02-10T00:28:59.586Z,1.40
2019-02-10T00:31:30.746Z,1.92
2019-02-10T00:34:01.864Z,2.10
2019-02-10T00:36:33.707Z,2.45
2019-02-10T00:39:09.432Z,2.08
2019-02-10T00:41:40.519Z,1.77
2019-02-10T00:44:11.655Z,1.85
2019-02-10T00:46:42.665Z,1.62
2019-02-10T00:49:13.698Z,1.75
2019-02-10T00:51:44.866Z,1.62
2019-02-10T00:54:15.937Z,1.80
2019-02-10T00:56:47.030Z,1.95
2019-02-10T00:59:18.754Z,1.75
2019-02-10T01:01:49.952Z,1.92
2019-02-10T01:04:21.075Z,1.40
2019-02-10T01:06:52.167Z,2.50
2019-02-10T01:09:23.417Z,1.67
2019-02-10T01:11:54.583Z,1.47
2019-02-10T01:14:25.725Z,1.90
2019-02-10T01:16:57.163Z,2.12
2019-02-10T01:19:28.350Z,2.42
2019-02-10T01:21:59.563Z,2.25
2019-02-10T01:24:30.861Z,1.85
2019-02-10T01:27:02.352Z,1.80
2019-02-10T01:29:33.643Z,2.02
2019-02-10T01:32:04.877Z,2.12
2019-02-10T01:34:36.292Z,1.42
2019-02-10T01:37:07.519Z,2.10
2019-02-10T01:39:38.633Z,1.92
2019-02-10T01:42:09.734Z,2.33
2019-02-10T01:44:41.370Z,1.98
2019-02-10T01:47:12.540Z,2.27
2019-02-10T01:49:43.680Z,1.70
2019-02-10T01:52:14.761Z,2.17
2019-02-10T01:54:46.203Z,1.65
2019-02-10T01:57:17.832Z,1.70
2019-02-10T01:59:48.952Z,1.90
2019-02-10T02:02:20.118Z,2.00
2019-02-10T02:04:51.232Z,2.05
2019-02-10T02:07:22.684Z,2.10
2019-02-10T02:09:53.894Z,1.82
2019-02-10T02:12:25.255Z,2.15
2019-02-10T02:14:56.445Z,1.90
2019-02-10T02:17:27.866Z,1.92
2019-02-10T02:19:59.059Z,1.98
2019-02-10T02:22:30.345Z,1.75
2019-02-10T02:25:01.575Z,2.08
2019-02-10T02:27:33.085Z,2.67
2019-02-10T02:30:05.341Z,2.22
2019-02-10T02:32:36.573Z,1.82
2019-02-10T02:35:07.855Z,1.90
2019-02-10T02:37:39.063Z,1.82
2019-02-10T02:40:11.688Z,2.15
2019-02-10T02:42:42.961Z,2.08
2019-02-10T02:45:14.174Z,1.62
2019-02-10T02:47:45.253Z,1.60
2019-02-10T02:50:16.518Z,2.05
2019-02-10T02:52:47.603Z,1.98
2019-02-10T02:55:18.777Z,1.70
2019-02-10T02:57:50.453Z,2.00
2019-02-10T03:00:22.024Z,1.50
2019-02-10T03:02:53.201Z,2.33
2019-02-10T03:05:24.425Z,1.65
2019-02-10T03:07:55.919Z,1.65
2019-02-10T03:10:27.602Z,1.95
2019-02-10T03:12:58.682Z,2.15
2019-02-10T03:15:29.732Z,1.98
2019-02-10T03:18:00.817Z,1.77
2019-02-10T03:20:32.482Z,1.92
2019-02-10T03:23:03.572Z,1.70
2019-02-10T03:25:34.978Z,1.95
2019-02-10T03:28:06.140Z,1.85
2019-02-10T03:30:37.418Z,1.95
2019-02-10T03:33:08.446Z,1.65
2019-02-10T03:35:39.551Z,1.95
2019-02-10T03:38:10.729Z,2.08
2019-02-10T03:40:41.772Z,1.72
2019-02-10T03:43:12.786Z,1.98
2019-02-10T03:45:44.103Z,2.00
2019-02-10T03:48:15.357Z,1.90
2019-02-10T03:50:46.598Z,1.80
2019-02-10T03:53:17.693Z,1.90
2019-02-10T03:55:48.879Z,1.80
2019-02-10T03:58:20.321Z,1.70
2019-02-10T04:00:51.662Z,2.15
2019-02-10T04:03:22.758Z,1.98
2019-02-10T04:05:53.948Z,1.80
2019-02-10T04:08:25.327Z,2.02
2019-02-10T04:10:56.437Z,1.98
2019-02-10T04:13:27.918Z,1.85
2019-02-10T04:15:59.049Z,1.90
2019-02-10T04:18:30.073Z,1.95
2019-02-10T04:21:01.211Z,2.05
2019-02-10T04:23:32.288Z,1.37
2019-02-10T04:26:03.403Z,2.20
2019-02-10T04:28:34.467Z,1.37
2019-02-10T04:31:05.727Z,1.90
2019-02-10T04:33:36.895Z,2.20
2019-02-10T04:36:08.157Z,1.92
2019-02-10T04:38:39.551Z,2.10
2019-02-10T04:41:10.741Z,1.90
2019-02-10T04:43:41.903Z,1.82
2019-02-10T04:46:13.028Z,2.20
2019-02-10T04:48:44.216Z,1.92
2019-02-10T04:51:15.415Z,1.95
2019-02-10T04:53:46.595Z,2.00
2019-02-10T04:56:19.800Z,1.90
2019-02-10T04:58:50.961Z,1.80
2019-02-10T05:01:22.102Z,2.22
2019-02-10T05:03:53.642Z,2.22
2019-02-10T05:06:24.839Z,1.95
2019-02-10T05:08:56.740Z,2.05
2019-02-10T05:11:27.933Z,2.20
2019-02-10T05:13:59.016Z,1.67
2019-02-10T05:16:30.130Z,2.10
2019-02-10T05:19:01.147Z,2.12
2019-02-10T05:21:32.364Z,1.60
2019-02-10T05:24:03.952Z,2.05
2019-02-10T05:26:35.146Z,1.85
2019-02-10T05:29:06.316Z,0.90
2019-02-10T05:31:38.506Z,2.30
2019-02-10T05:34:09.649Z,1.72
2019-02-10T05:36:40.849Z,2.00
2019-02-10T05:39:11.864Z,0.95
2019-02-10T05:41:43.342Z,1.45
2019-02-10T05:44:14.442Z,1.57
2019-02-10T05:46:45.728Z,2.12
2019-02-10T05:49:17.149Z,2.90
2019-02-10T05:51:48.322Z,2.40
2019-02-10T05:54:19.362Z,2.12
2019-02-10T05:56:50.474Z,2.58
2019-02-10T05:59:21.922Z,2.30
2019-02-10T06:02:17.741Z,2.00
2019-02-10T06:04:48.821Z,1.98
2019-02-10T06:07:19.917Z,1.20
2019-02-10T06:09:50.958Z,1.62
2019-02-10T06:12:22.078Z,2.02
2019-02-10T06:14:53.249Z,1.87
2019-02-10T06:17:24.644Z,1.85
2019-02-10T06:19:56.088Z,2.25
2019-02-10T06:22:27.544Z,1.95
2019-02-10T06:24:58.590Z,2.12
2019-02-10T06:27:29.717Z,2.15
2019-02-10T06:30:01.153Z,1.65
2019-02-10T06:32:32.358Z,2.10
2019-02-10T06:35:03.534Z,2.00
2019-02-10T06:37:34.747Z,2.30
2019-02-10T06:40:08.227Z,2.12
2019-02-10T06:42:39.709Z,2.12
2019-02-10T06:45:13.557Z,2.55
2019-02-10T06:47:44.950Z,1.90
2019-02-10T06:50:16.456Z,1.95
2019-02-10T06:52:47.790Z,2.33
2019-02-10T06:55:19.842Z,1.70
2019-02-10T06:57:50.879Z,2.00
2019-02-10T07:00:39.933Z,2.25
2019-02-10T07:03:46.986Z,2.75
2019-02-10T07:06:18.159Z,2.65
2019-02-10T07:08:49.433Z,1.92
2019-02-10T07:11:20.999Z,2.27
2019-02-10T07:13:59.657Z,1.57
2019-02-10T07:17:48.979Z,2.52
2019-02-10T07:20:57.654Z,1.90
2019-02-10T07:24:31.048Z,1.20
2019-02-10T07:27:31.654Z,1.40
2019-02-10T07:30:47.187Z,1.70
2019-02-10T07:34:20.642Z,1.95
2019-02-10T07:37:47.283Z,1.60
2019-02-10T07:41:17.223Z,2.35
2019-02-10T07:44:51.146Z,1.42
2019-02-10T07:48:37.904Z,2.10
2019-02-10T07:52:31.420Z,1.37
2019-02-10T07:56:23.360Z,1.95
2019-02-10T07:59:36.288Z,1.95
2019-02-10T08:03:25.668Z,1.27
2019-02-10T08:06:59.062Z,1.82
2019-02-10T08:10:23.389Z,1.92
2019-02-10T08:13:28.795Z,2.12
2019-02-10T08:17:42.945Z,1.87
2019-02-10T08:21:19.289Z,1.55
2019-02-10T08:24:43.818Z,0.80
2019-02-10T08:28:24.251Z,1.60
2019-02-10T08:31:44.822Z,1.77
2019-02-10T08:34:49.218Z,1.20
2019-02-10T08:38:10.490Z,1.25
2019-02-10T08:41:29.334Z,1.90
2019-02-10T08:44:43.154Z,2.05
2019-02-10T08:48:36.787Z,1.98
2019-02-10T08:52:04.151Z,1.40
2019-02-10T08:54:35.395Z,0.85
2019-02-10T08:57:06.807Z,2.05
2019-02-10T08:59:38.502Z,1.40
2019-02-10T09:02:09.638Z,1.57
2019-02-10T09:04:40.858Z,2.22
2019-02-10T09:07:11.965Z,0.95
2019-02-10T09:09:43.493Z,1.60
2019-02-10T09:12:14.831Z,1.40
2019-02-10T09:14:46.057Z,1.35
2019-02-10T09:17:17.210Z,1.40
2019-02-10T09:19:48.373Z,1.20
2019-02-10T09:22:20.721Z,1.57
2019-02-10T09:24:51.825Z,1.37
2019-02-10T09:27:23.430Z,1.00
2019-02-10T09:29:54.877Z,1.22
2019-02-10T09:32:27.215Z,1.10
2019-02-10T09:34:58.795Z,1.30
2019-02-10T09:37:29.962Z,1.30
2019-02-10T09:40:01.730Z,1.35
2019-02-10T09:42:33.892Z,1.40
2019-02-10T09:45:05.667Z,1.42
2019-02-10T09:47:37.179Z,1.37
2019-02-10T09:50:12.718Z,0.85
2019-02-10T09:52:44.285Z,1.25
2019-02-10T09:55:16.462Z,1.10
2019-02-10T09:57:47.616Z,1.30
2019-02-10T10:00:18.626Z,1.20
2019-02-10T10:02:49.882Z,0.50
2019-02-10T10:05:21.054Z,0.88
2019-02-10T10:07:52.565Z,0.82
2019-02-10T10:10:23.857Z,0.80
2019-02-10T10:12:55.418Z,0.90
2019-02-10T10:15:26.724Z,0.80
2019-02-10T10:17:58.307Z,1.10
2019-02-10T10:20:29.895Z,0.42
2019-02-10T10:23:01.018Z,1.12
2019-02-10T10:25:34.870Z,0.75
2019-02-10T10:28:06.087Z,0.80
2019-02-10T10:30:37.754Z,0.93
2019-02-10T10:33:09.346Z,1.10
2019-02-10T10:35:40.905Z,1.27
2019-02-10T10:38:12.232Z,1.20
2019-02-10T10:40:43.402Z,0.60
2019-02-10T10:43:14.913Z,0.70
2019-02-10T10:45:46.401Z,0.82
2019-02-10T10:48:18.026Z,0.60
2019-02-10T10:50:50.083Z,0.80
2019-02-10T10:53:21.545Z,1.02
2019-02-10T10:55:53.091Z,1.00
2019-02-10T10:58:24.651Z,0.65
2019-02-10T11:00:56.204Z,0.53
2019-02-10T11:03:27.410Z,0.93
2019-02-10T11:05:58.496Z,1.17
2019-02-10T11:08:30.073Z,0.68
2019-02-10T11:11:01.522Z,0.60
2019-02-10T11:13:32.599Z,0.88
2019-02-10T11:16:03.811Z,0.65
2019-02-10T11:18:35.223Z,1.05
2019-02-10T11:21:06.397Z,1.10
2019-02-10T11:23:37.814Z,0.90
2019-02-10T11:26:09.374Z,0.90
2019-02-10T11:28:41.366Z,0.53
2019-02-10T11:31:12.481Z,0.65
2019-02-10T11:33:44.226Z,1.10
2019-02-10T11:36:15.332Z,1.05
2019-02-10T11:38:46.618Z,0.95
2019-02-10T11:41:17.864Z,0.70
2019-02-10T11:43:49.257Z,0.75
2019-02-10T11:46:20.366Z,1.00
2019-02-10T11:48:51.517Z,0.80
2019-02-10T11:51:22.694Z,1.00
2019-02-10T11:54:04.170Z,0.95
2019-02-10T11:56:35.414Z,1.57
2019-02-10T11:59:06.739Z,0.80
2019-02-10T12:01:37.829Z,0.65
2019-02-10T12:04:09.342Z,0.90
2019-02-10T12:06:40.446Z,0.78
2019-02-10T12:09:11.746Z,0.40
2019-02-10T12:11:43.248Z,0.80
2019-02-10T12:14:14.470Z,0.53
2019-02-10T12:16:45.598Z,1.00
2019-02-10T12:19:16.898Z,0.80
2019-02-10T12:21:48.059Z,0.80
2019-02-10T12:24:19.230Z,0.80
2019-02-10T12:26:50.340Z,0.90
2019-02-10T12:29:21.488Z,0.90
2019-02-10T12:31:52.710Z,0.80
2019-02-10T12:34:23.909Z,0.53
2019-02-10T12:36:55.087Z,1.30
2019-02-10T12:39:26.427Z,0.90
2019-02-10T12:41:57.614Z,0.90
2019-02-10T12:44:28.758Z,0.65
2019-02-10T12:46:59.969Z,0.30
2019-02-10T12:49:31.318Z,0.85
2019-02-10T12:52:02.562Z,1.00
2019-02-10T12:54:33.778Z,0.80
2019-02-10T12:57:05.362Z,0.93
2019-02-10T12:59:37.021Z,0.93
2019-02-10T13:02:08.404Z,0.90
2019-02-10T13:04:39.674Z,0.90
2019-02-10T13:07:10.696Z,0.80
2019-02-10T13:09:41.905Z,0.88
2019-02-10T13:12:12.993Z,0.62
2019-02-10T13:14:44.329Z,0.90
2019-02-10T13:17:15.557Z,0.80
2019-02-10T13:19:46.668Z,0.85
2019-02-10T13:22:17.971Z,1.00
2019-02-10T13:24:49.262Z,0.95
2019-02-10T13:27:20.492Z,0.70
2019-02-10T13:29:53.087Z,1.20
2019-02-10T13:32:24.535Z,1.02
2019-02-10T13:34:55.770Z,0.80
2019-02-10T13:37:27.060Z,0.80
2019-02-10T13:39:58.225Z,0.60
2019-02-10T13:42:29.537Z,0.78
2019-02-10T13:45:00.786Z,0.65
2019-02-10T13:47:31.821Z,0.85
2019-02-10T13:50:02.989Z,0.95
2019-02-10T13:52:34.597Z,0.30
2019-02-10T13:55:06.465Z,0.85
2019-02-10T13:57:37.847Z,0.90
2019-02-10T14:00:16.242Z,0.80
2019-02-10T14:02:47.614Z,0.60
2019-02-10T14:05:18.910Z,0.80
2019-02-10T14:07:51.012Z,1.00
2019-02-10T14:10:25.712Z,0.98
2019-02-10T14:13:01.291Z,1.25
2019-02-10T14:15:32.694Z,0.90
2019-02-10T14:18:04.053Z,0.95
2019-02-10T14:20:35.290Z,0.80
2019-02-10T14:23:06.477Z,0.70
2019-02-10T14:25:37.548Z,0.65
2019-02-10T14:28:08.706Z,0.85
2019-02-10T14:30:40.006Z,0.70
2019-02-10T14:33:11.019Z,0.72
2019-02-10T14:35:44.717Z,1.00
2019-02-10T14:38:15.988Z,0.40
2019-02-10T14:40:47.125Z,0.62
2019-02-10T14:43:18.474Z,1.07
2019-02-10T14:45:49.710Z,1.07
2019-02-10T14:48:21.033Z,1.02
2019-02-10T14:50:52.259Z,0.82
2019-02-10T14:53:23.440Z,1.00
2019-02-10T14:55:54.984Z,0.68
2019-02-10T14:58:26.258Z,1.30
2019-02-10T15:00:57.419Z,1.10
2019-02-10T15:03:28.510Z,1.20
2019-02-10T15:06:00.162Z,0.98
2019-02-10T15:08:31.248Z,1.32
2019-02-10T15:11:02.662Z,1.20
2019-02-10T15:13:33.814Z,1.20
2019-02-10T15:16:05.254Z,1.17
2019-02-10T15:18:36.335Z,0.98
2019-02-10T15:21:07.663Z,1.10
2019-02-10T15:23:39.193Z,1.12
2019-02-10T15:26:10.559Z,0.93
2019-02-10T15:28:42.456Z,1.10
2019-02-10T15:31:13.603Z,1.47
2019-02-10T15:33:45.083Z,1.07
2019-02-10T15:36:16.757Z,0.90
2019-02-10T15:38:48.755Z,1.20
2019-02-10T15:41:19.814Z,0.88
2019-02-10T15:43:50.896Z,1.50
2019-02-10T15:46:22.446Z,1.37
2019-02-10T15:48:53.567Z,1.47
2019-02-10T15:51:35.619Z,1.22
2019-02-10T15:53:57.782Z,1.37
2019-02-10T15:56:28.922Z,1.40
2019-02-10T15:59:00.217Z,0.90
2019-02-10T16:01:31.965Z,0.75
2019-02-10T16:04:02.974Z,1.30
2019-02-10T16:06:34.276Z,1.20
2019-02-10T16:09:06.415Z,1.35
2019-02-10T16:11:39.407Z,1.32
2019-02-10T16:14:10.765Z,0.60
2019-02-10T16:16:42.002Z,1.60
2019-02-10T16:19:13.147Z,1.25
2019-02-10T16:21:44.595Z,0.90
2019-02-10T16:24:15.710Z,1.20
2019-02-10T16:26:46.927Z,1.40
2019-02-10T16:29:18.315Z,1.20
2019-02-10T16:31:49.477Z,1.35
2019-02-10T16:34:20.765Z,1.67
2019-02-10T16:36:52.184Z,1.25
2019-02-10T16:39:23.447Z,1.30
2019-02-10T16:41:54.604Z,1.12
2019-02-10T16:44:25.651Z,0.95
2019-02-10T16:46:56.773Z,1.30
2019-02-10T16:49:28.000Z,0.60
2019-02-10T16:51:59.634Z,1.10
2019-02-10T16:54:30.727Z,0.90
2019-02-10T16:57:02.154Z,1.02
2019-02-10T16:59:33.819Z,1.00
2019-02-10T17:02:05.045Z,0.68
2019-02-10T17:04:36.778Z,0.93
2019-02-10T17:07:07.978Z,1.00
2019-02-10T17:09:39.058Z,0.85
2019-02-10T17:12:10.155Z,1.10
2019-02-10T17:14:41.554Z,1.00
2019-02-10T17:17:12.663Z,1.02
2019-02-10T17:19:43.831Z,0.78
2019-02-10T17:22:15.051Z,0.90
2019-02-10T17:24:46.226Z,1.00
2019-02-10T17:27:17.472Z,0.90
2019-02-10T17:29:48.638Z,1.20
2019-02-10T17:32:19.889Z,0.90
2019-02-10T17:34:50.963Z,1.20
2019-02-10T17:37:22.190Z,1.00
2019-02-10T17:39:53.426Z,1.30
2019-02-10T17:42:24.834Z,1.10
2019-02-10T17:44:55.946Z,1.82
2019-02-10T17:47:27.294Z,1.20
2019-02-10T17:49:58.779Z,1.20
2019-02-10T17:52:32.001Z,1.50
2019-02-10T17:55:02.971Z,1.27
2019-02-10T17:57:35.286Z,1.27
2019-02-10T18:00:07.353Z,1.00
2019-02-10T18:02:39.127Z,1.25
2019-02-10T18:05:10.499Z,1.30
2019-02-10T18:07:41.750Z,1.00
2019-02-10T18:10:13.220Z,1.02
2019-02-10T18:12:44.596Z,0.82
2019-02-10T18:15:47.030Z,0.98
2019-02-10T18:18:46.619Z,1.45
2019-02-10T18:21:29.153Z,1.10
2019-02-10T18:24:39.736Z,1.00
2019-02-10T18:27:45.343Z,1.17
2019-02-10T18:30:33.334Z,1.02
2019-02-10T18:33:18.519Z,0.80
2019-02-10T18:36:02.352Z,0.90
2019-02-10T18:38:45.194Z,0.90
2019-02-10T18:41:22.947Z,0.70
2019-02-10T18:44:19.226Z,0.50
2019-02-10T18:47:08.110Z,0.70
2019-02-10T18:49:58.344Z,0.70
2019-02-10T18:52:48.678Z,0.40
2019-02-10T18:55:38.756Z,0.60
2019-02-10T18:58:25.241Z,0.40
2019-02-10T19:01:05.346Z,0.70
2019-02-10T19:03:58.606Z,0.55
2019-02-10T19:06:47.255Z,0.50
2019-02-10T19:09:28.598Z,0.30
2019-02-10T19:12:11.924Z,0.62
2019-02-10T19:15:02.189Z,0.40
2019-02-10T19:17:52.473Z,0.50
2019-02-10T19:20:33.115Z,0.57
2019-02-10T19:23:19.470Z,0.40
2019-02-10T19:26:23.182Z,0.40
2019-02-10T19:29:09.740Z,0.60
2019-02-10T19:31:59.748Z,0.60
2019-02-10T19:34:55.744Z,0.68
2019-02-10T19:37:44.982Z,0.50
2019-02-10T19:40:53.403Z,0.40
2019-02-10T19:43:43.797Z,0.50
2019-02-10T19:46:31.852Z,0.50
2019-02-10T19:49:12.612Z,0.30
2019-02-10T19:51:53.593Z,0.40
2019-02-10T19:54:43.078Z,0.40
2019-02-10T19:57:39.868Z,0.37
2019-02-10T20:00:35.931Z,0.60
2019-02-10T20:03:21.168Z,0.65
2019-02-10T20:06:04.011Z,0.60
2019-02-10T20:08:51.349Z,0.42
2019-02-10T20:11:32.744Z,0.45
2019-02-10T20:14:29.356Z,0.60
2019-02-10T20:17:22.357Z,0.40
2019-02-10T20:20:11.756Z,0.40
2019-02-10T20:22:50.473Z,0.20
2019-02-10T20:25:46.797Z,0.60
2019-02-10T20:28:37.001Z,0.60
2019-02-10T20:31:42.569Z,0.60
2019-02-10T20:34:31.389Z,0.60
2019-02-10T20:37:10.515Z,0.35
2019-02-10T20:39:54.089Z,0.40
2019-02-10T20:42:32.087Z,0.37
2019-02-10T20:45:31.180Z,0.60
2019-02-10T20:48:10.589Z,0.40
2019-02-10T20:51:00.680Z,0.40
2019-02-10T20:53:46.635Z,0.53
2019-02-10T20:56:22.994Z,0.40
2019-02-10T20:59:00.488Z,0.30
2019-02-10T21:01:49.559Z,0.65
2019-02-10T21:04:38.391Z,0.30
2019-02-10T21:07:15.489Z,0.50
2019-02-10T21:10:04.799Z,0.20
2019-02-10T21:13:00.781Z,0.40
2019-02-10T21:15:45.263Z,0.40
2019-02-10T21:18:38.611Z,0.30
2019-02-10T21:21:31.659Z,0.40
2019-02-10T21:24:09.486Z,0.55
2019-02-10T21:26:57.392Z,0.40
2019-02-10T21:29:42.169Z,0.42
2019-02-10T21:32:35.590Z,0.40
2019-02-10T21:35:29.955Z,0.20
2019-02-10T21:38:07.118Z,0.42
2019-02-10T21:40:51.725Z,0.33
2019-02-10T21:43:30.754Z,0.20
2019-02-10T21:46:22.805Z,0.30
2019-02-10T21:49:00.202Z,0.30
2019-02-10T21:51:31.448Z,0.20
2019-02-10T21:54:02.695Z,0.23
2019-02-10T21:56:33.799Z,0.45
2019-02-10T21:59:05.359Z,0.30
2019-02-10T22:01:36.450Z,0.40
2019-02-10T22:04:07.691Z,0.37
2019-02-10T22:06:38.944Z,0.50
2019-02-10T22:09:10.084Z,0.40
2019-02-10T22:11:41.277Z,0.30
2019-02-10T22:14:12.916Z,0.33
2019-02-10T22:16:44.092Z,0.20
2019-02-10T22:19:15.282Z,0.55
2019-02-10T22:21:46.453Z,0.40
2019-02-10T22:24:17.663Z,0.60
2019-02-10T22:26:48.716Z,0.40
2019-02-10T22:29:19.920Z,0.30
2019-02-10T22:31:51.122Z,0.50
2019-02-10T22:34:22.254Z,0.33
2019-02-10T22:36:53.361Z,0.45
2019-02-10T22:39:24.553Z,0.50
2019-02-10T22:41:55.649Z,0.50
2019-02-10T22:44:26.806Z,0.50
2019-02-10T22:46:57.892Z,0.50
2019-02-10T22:49:29.097Z,0.30
2019-02-10T22:52:00.616Z,0.50
2019-02-10T22:54:31.729Z,0.57
2019-02-10T22:57:02.976Z,0.30
2019-02-10T22:59:34.326Z,0.78
2019-02-10T23:02:06.286Z,0.40
2019-02-10T23:04:37.524Z,0.50
2019-02-10T23:07:09.286Z,0.40
2019-02-10T23:09:40.733Z,0.40
2019-02-10T23:12:11.947Z,0.50
2019-02-10T23:14:43.194Z,0.30
2019-02-10T23:17:14.366Z,0.50
2019-02-10T23:19:45.717Z,0.33
2019-02-10T23:22:17.174Z,0.30
2019-02-10T23:24:48.302Z,0.33
2019-02-10T23:27:19.419Z,0.40
2019-02-10T23:29:50.603Z,0.40
2019-02-10T23:32:22.053Z,0.40
2019-02-10T23:34:53.178Z,0.40
2019-02-10T23:37:24.276Z,0.42
2019-02-10T23:39:55.781Z,0.50
2019-02-10T23:42:26.969Z,0.45
2019-02-10T23:44:58.030Z,0.57
2019-02-10T23:47:29.050Z,0.40
2019-02-10T23:50:00.460Z,0.35
2019-02-10T23:52:31.902Z,0.30
2019-02-10T23:55:03.021Z,0.40
2019-02-10T23:57:34.450Z,0.53
